Time;durP1;ratioP1;P1;durP2;ratioP2;P2;SDS_P1;SDS_P2;PMS_P1;PMS_P2;Temp;Humidity;BMP_temperature;BMP_pressure;BME280_temperature;BME280_humidity;BME280_pressure;Samples;Min_cycle;Max_cycle;Signal;HPM_P1;HPM_P2
2022/09/04 00:02:27;;;;;;;5.72;5.13;;;;;;;16.34;87.66;100608.13;5094532;28;20390;-73
2022/09/04 00:05:55;;;;;;;5.18;4.68;;;;;;;16.42;87.31;100614.47;5107409;28;20074;-73
2022/09/04 00:09:38;;;;;;;6.82;5.03;;;;;;;16.47;87.93;100606.22;5106754;28;20066;-73
2022/09/04 00:12:53;;;;;;;5.72;5.20;;;;;;;16.40;88.36;100619.06;5106989;28;20398;-73
2022/09/04 00:16:11;;;;;;;4.60;4.18;;;;;;;16.51;87.25;100613.78;5106615;28;20097;-73
2022/09/04 00:19:34;;;;;;;10.82;5.90;;;;;;;16.17;89.42;100619.91;5107306;28;20101;-73
2022/09/04 00:22:54;;;;;;;5.78;5.28;;;;;;;16.12;89.60;100612.34;5108922;28;20046;-74
2022/09/04 00:25:58;;;;;;;6.85;5.70;;;;;;;15.84;92.04;100616.16;5110477;28;20197;-73
2022/09/04 00:29:11;;;;;;;6.65;4.82;;;;;;;15.93;91.97;100633.97;5110701;28;20069;-73
2022/09/04 00:32:44;;;;;;;5.90;4.20;;;;;;;16.12;89.36;100622.06;5110789;28;20494;-73
2022/09/04 00:35:54;;;;;;;4.00;3.30;;;;;;;16.25;87.37;100623.66;5110227;28;20454;-73
2022/09/04 00:39:08;;;;;;;5.38;3.85;;;;;;;16.19;86.48;100628.56;5110664;28;20077;-74
2022/09/04 00:43:01;;;;;;;4.20;3.40;;;;;;;16.17;85.79;100636.56;5110385;28;20051;-74
2022/09/04 00:46:41;;;;;;;5.35;3.42;;;;;;;16.07;85.54;100638.22;5110905;28;20042;-74
2022/09/04 00:50:03;;;;;;;5.15;3.85;;;;;;;15.92;86.48;100650.75;5111059;28;20043;-74
2022/09/04 00:53:54;;;;;;;4.20;3.10;;;;;;;16.00;86.05;100648.38;5109852;28;20047;-74
2022/09/04 00:57:38;;;;;;;5.38;3.80;;;;;;;16.03;85.58;100645.50;5047465;28;20084;-74
2022/09/04 01:00:45;;;;;;;4.45;3.90;;;;;;;16.02;85.69;100643.84;5066849;28;20138;-74
2022/09/04 01:04:12;;;;;;;4.80;4.30;;;;;;;16.02;85.69;100650.91;5110276;28;20188;-74
2022/09/04 01:07:40;;;;;;;5.45;4.22;;;;;;;16.00;85.77;100660.72;5109930;28;20051;-74
2022/09/04 01:11:24;;;;;;;12.73;4.07;;;;;;;15.84;86.76;100662.78;5110480;28;20073;-73
2022/09/04 01:14:41;;;;;;;7.25;3.95;;;;;;;15.83;86.70;100671.66;5109492;28;20077;-74
2022/09/04 01:18:17;;;;;;;9.95;3.40;;;;;;;15.82;86.27;100670.78;5109541;28;20092;-74
2022/09/04 01:22:03;;;;;;;6.38;4.10;;;;;;;15.62;87.12;100666.91;5109388;28;20621;-74
2022/09/04 01:25:28;;;;;;;5.32;4.05;;;;;;;15.65;86.46;100671.13;5107910;28;20552;-73
2022/09/04 01:28:53;;;;;;;4.68;3.45;;;;;;;15.56;86.22;100665.56;5096283;28;20459;-74
2022/09/04 01:32:31;;;;;;;3.75;2.60;;;;;;;15.70;84.79;100658.53;5108314;28;20104;-74
2022/09/04 01:35:44;;;;;;;3.35;2.10;;;;;;;15.84;83.87;100665.44;5108680;28;20146;-74
2022/09/04 01:39:05;;;;;;;4.88;2.00;;;;;;;15.66;83.36;100663.09;5108253;28;20042;-74
2022/09/04 01:42:43;;;;;;;6.50;1.98;;;;;;;15.56;84.47;100668.19;5109699;28;20050;-74
2022/09/04 01:45:55;;;;;;;3.40;1.60;;;;;;;15.57;83.70;100663.75;5109829;28;20058;-74
2022/09/04 01:49:23;;;;;;;5.13;1.60;;;;;;;15.65;83.54;100663.22;5109678;28;20043;-71
2022/09/04 01:52:32;;;;;;;2.90;1.90;;;;;;;15.62;83.37;100672.19;5109049;28;20062;-73
2022/09/04 01:55:54;;;;;;;3.65;1.65;;;;;;;15.58;83.02;100671.56;5108845;28;20096;-74
2022/09/04 01:59:14;;;;;;;3.65;1.30;;;;;;;15.61;82.27;100669.69;5109411;28;20055;-74
2022/09/04 02:02:33;;;;;;;3.90;1.70;;;;;;;15.61;82.11;100669.69;5121700;27;20127;-74
2022/09/04 02:05:49;;;;;;;4.85;1.30;;;;;;;15.56;82.32;100665.56;5110548;28;20046;-73
2022/09/04 02:09:30;;;;;;;3.53;1.20;;;;;;;15.57;81.86;100667.25;5111226;28;20097;-74
2022/09/04 02:12:52;;;;;;;4.05;1.23;;;;;;;15.56;81.74;100681.38;5111322;28;20046;-74
2022/09/04 02:16:15;;;;;;;4.80;1.85;;;;;;;15.56;81.48;100680.53;5110704;28;20139;-73
2022/09/04 02:19:24;;;;;;;;;;;;;;;15.55;81.61;100686.75;5086174;28;20043;-73
2022/09/04 02:23:03;;;;;;;3.05;1.58;;;;;;;15.49;81.66;100687.19;5110555;28;19964;-73
2022/09/04 02:26:19;;;;;;;3.88;1.70;;;;;;;15.41;82.55;100690.38;5109668;28;20734;-73
2022/09/04 02:29:55;;;;;;;4.15;1.48;;;;;;;15.25;83.56;100698.50;5110230;28;20104;-73
2022/09/04 02:33:08;;;;;;;5.47;1.42;;;;;;;15.15;84.30;100701.84;5110616;28;20067;-73
2022/09/04 02:36:25;;;;;;;2.95;1.50;;;;;;;15.26;84.08;100701.97;5110261;28;20100;-74
2022/09/04 02:39:31;;;;;;;3.70;1.77;;;;;;;15.22;83.92;100711.88;5109713;28;20043;-74
2022/09/04 02:43:03;;;;;;;4.13;1.30;;;;;;;15.32;82.98;100712.94;5109805;28;20092;-74
2022/09/04 02:46:14;;;;;;;3.90;1.30;;;;;;;15.36;82.62;100713.56;5102775;28;20050;-74
2022/09/04 02:49:29;;;;;;;2.83;1.38;;;;;;;15.34;82.86;100711.00;5110247;28;20148;-74
2022/09/04 02:53:08;;;;;;;4.55;1.80;;;;;;;15.39;82.83;100710.72;5120596;27;20379;-74
2022/09/04 02:56:30;;;;;;;6.50;2.17;;;;;;;15.39;83.20;100710.72;5105454;28;20089;-74
2022/09/04 02:59:54;;;;;;;3.50;2.20;;;;;;;15.45;82.75;100712.09;5109787;28;20098;-74
2022/09/04 03:03:17;;;;;;;3.92;2.33;;;;;;;15.42;83.11;100717.56;5109164;28;20059;-74
2022/09/04 03:06:39;;;;;;;4.15;3.45;;;;;;;15.27;84.30;100722.09;5096658;28;20088;-74
2022/09/04 03:09:47;;;;;;;7.70;3.80;;;;;;;15.34;83.83;100720.72;5109710;28;20061;-74
2022/09/04 03:13:09;;;;;;;5.82;3.80;;;;;;;15.30;84.08;100716.59;5089783;28;20062;-74
2022/09/04 03:16:34;;;;;;;5.20;3.35;;;;;;;15.29;84.33;100718.41;5088879;28;20051;-74
2022/09/04 03:19:59;;;;;;;5.57;3.45;;;;;;;15.32;83.96;100727.91;5089941;28;20074;-73
2022/09/04 03:23:20;;;;;;;10.90;4.15;;;;;;;15.25;83.92;100722.22;5088600;28;20055;-74
2022/09/04 03:26:30;;;;;;;6.80;4.05;;;;;;;15.30;83.63;100729.78;5089216;28;20063;-74
2022/09/04 03:29:42;;;;;;;6.40;4.18;;;;;;;15.15;84.59;100722.91;5089391;28;20051;-74
2022/09/04 03:32:45;;;;;;;4.77;3.93;;;;;;;15.04;84.74;100718.41;5088446;28;20478;-74
2022/09/04 03:35:49;;;;;;;9.27;4.03;;;;;;;14.98;84.73;100722.28;5105748;28;20059;-74
2022/09/04 03:39:04;;;;;;;5.38;3.90;;;;;;;14.91;84.90;100728.91;5108660;28;20054;-73
2022/09/04 03:42:08;;;;;;;6.70;3.70;;;;;;;15.00;84.17;100728.31;5108567;28;20131;-73
2022/09/04 03:45:14;;;;;;;5.10;3.55;;;;;;;15.03;83.84;100725.47;5107138;28;20054;-73
2022/09/04 03:48:24;;;;;;;4.80;2.90;;;;;;;14.97;84.02;100722.41;5107007;28;20051;-73
2022/09/04 03:51:49;;;;;;;3.63;2.65;;;;;;;14.91;84.14;100728.91;5106721;28;20398;-73
2022/09/04 03:55:03;;;;;;;3.50;2.60;;;;;;;14.96;84.30;100728.59;5106942;28;20398;-73
2022/09/04 03:58:48;;;;;;;4.00;2.70;;;;;;;15.06;83.86;100724.38;5089415;28;20055;-73
2022/09/04 04:02:06;;;;;;;4.55;2.78;;;;;;;15.15;83.53;100725.56;5103823;28;20498;-74
2022/09/04 04:05:12;;;;;;;6.45;2.97;;;;;;;15.20;83.35;100724.31;5111658;28;20064;-72
2022/09/04 04:08:28;;;;;;;3.83;2.40;;;;;;;15.19;83.42;100729.66;5111882;28;21324;-72
2022/09/04 04:11:34;;;;;;;6.05;2.40;;;;;;;15.20;83.36;100729.56;5111677;28;20448;-72
2022/09/04 04:14:53;;;;;;;5.15;2.38;;;;;;;15.22;83.50;100730.31;5111369;28;20116;-72
2022/09/04 04:18:12;;;;;;;3.05;1.90;;;;;;;15.18;83.89;100730.63;5110659;28;20543;-72
2022/09/04 04:21:56;;;;;;;4.25;2.28;;;;;;;15.18;83.66;100738.53;5110803;28;20050;-72
2022/09/04 04:25:27;;;;;;;4.47;2.20;;;;;;;15.09;83.84;100743.47;5110454;28;20065;-73
2022/09/04 04:28:55;;;;;;;2.67;1.88;;;;;;;15.18;83.98;100743.78;5110685;28;20047;-73
2022/09/04 04:32:10;;;;;;;4.68;2.08;;;;;;;15.17;84.43;100744.75;5111189;28;20050;-73
2022/09/04 04:35:37;;;;;;;2.95;1.80;;;;;;;15.24;84.18;100757.38;5110563;28;20386;-74
2022/09/04 04:39:04;;;;;;;4.25;2.20;;;;;;;15.22;84.29;100759.28;5111305;28;20084;-73
2022/09/04 04:42:16;;;;;;;8.68;2.28;;;;;;;15.08;84.60;100762.84;5110483;28;20119;-73
2022/09/04 04:45:49;;;;;;;4.80;2.75;;;;;;;15.03;85.43;100759.69;5110128;28;20448;-73
2022/09/04 04:48:53;;;;;;;5.10;2.47;;;;;;;15.04;85.51;100766.63;5110234;28;20571;-73
2022/09/04 04:52:34;;;;;;;4.30;2.30;;;;;;;15.09;85.51;100775.09;5110673;28;20070;-73
2022/09/04 04:56:00;;;;;;;7.13;2.85;;;;;;;15.17;85.37;100784.25;5110469;28;20043;-73
2022/09/04 04:59:19;;;;;;;6.97;3.30;;;;;;;15.11;86.15;100783.72;5119009;27;20050;-73
2022/09/04 05:02:31;;;;;;;6.82;3.03;;;;;;;15.07;86.94;100790.13;5110587;28;20448;-74
2022/09/04 05:06:08;;;;;;;9.20;3.85;;;;;;;15.06;87.32;100796.34;5115186;28;20052;-74
2022/09/04 05:09:56;;;;;;;10.38;3.75;;;;;;;15.09;87.43;100796.16;5122166;28;20051;-74
2022/09/04 05:13:10;;;;;;;7.30;3.97;;;;;;;15.06;87.78;100803.38;5118382;28;20100;-74
2022/09/04 05:16:54;;;;;;;8.25;4.15;;;;;;;14.95;88.94;100806.75;5098650;28;20078;-75
2022/09/04 05:20:47;;;;;;;11.20;4.78;;;;;;;14.89;89.75;100804.50;5113954;28;20047;-74
2022/09/04 05:24:53;;;;;;;11.55;4.38;;;;;;;15.01;89.17;100803.72;5118551;28;20099;-74
2022/09/04 05:28:07;;;;;;;7.85;4.47;;;;;;;15.03;89.39;100811.53;5052292;28;20110;-74
2022/09/04 05:31:39;;;;;;;14.32;5.00;;;;;;;14.80;91.13;100818.28;5072353;28;20501;-74
2022/09/04 05:35:19;;;;;;;11.75;4.65;;;;;;;14.81;91.79;100827.88;5109501;28;20362;-74
2022/09/04 05:41:58;;;;;;;6.68;4.13;;;;;;;15.06;90.36;100835.88;5068987;28;20131;-73
2022/09/04 05:45:34;;;;;;;7.45;4.55;;;;;;;15.01;90.30;100843.22;5070182;28;20419;-73
2022/09/04 05:49:01;;;;;;;9.77;4.78;;;;;;;14.86;92.06;100850.31;5067289;28;20082;-73
2022/09/04 05:52:05;;;;;;;10.90;3.72;;;;;;;14.95;92.19;100848.03;5051051;28;20602;-73
2022/09/04 05:55:11;;;;;;;9.77;4.47;;;;;;;15.16;90.71;100853.69;5068934;28;20442;-74
2022/09/04 05:58:33;;;;;;;7.93;4.38;;;;;;;15.34;89.65;100860.34;5076143;28;20042;-73
2022/09/04 06:01:57;;;;;;;8.43;5.22;;;;;;;15.47;89.15;100853.31;5049952;28;20060;-73
2022/09/04 06:05:27;;;;;;;7.38;4.60;;;;;;;15.35;89.93;100857.63;5057414;28;20449;-73
2022/09/04 06:08:54;;;;;;;9.65;4.93;;;;;;;15.41;89.80;100860.78;5069194;28;20042;-73
2022/09/04 06:12:24;;;;;;;8.60;5.20;;;;;;;15.35;90.32;100862.91;5069605;28;20078;-73
2022/09/04 06:15:36;;;;;;;6.60;4.47;;;;;;;15.43;90.69;100870.28;5067335;28;20621;-73
2022/09/04 06:19:09;;;;;;;6.85;3.97;;;;;;;15.62;89.79;100871.69;5068676;28;20690;-73
2022/09/04 06:22:36;;;;;;;9.55;4.70;;;;;;;15.53;89.96;100876.59;5068978;28;20047;-73
2022/09/04 06:25:57;;;;;;;9.60;5.30;;;;;;;15.61;90.26;100875.28;5070378;28;20544;-73
2022/09/04 06:29:28;;;;;;;8.10;4.78;;;;;;;15.83;89.39;100877.31;5069168;28;20559;-73
2022/09/04 06:32:48;;;;;;;5.65;4.38;;;;;;;15.83;89.12;100883.44;5068362;28;20103;-73
2022/09/04 06:36:38;;;;;;;5.43;4.03;;;;;;;15.89;88.57;100898.84;5069272;28;20051;-75
2022/09/04 06:40:20;;;;;;;6.20;3.35;;;;;;;15.96;87.81;100891.34;5068061;28;20106;-75
2022/09/04 06:43:35;;;;;;;4.38;3.30;;;;;;;16.00;88.09;100893.66;5067071;28;20098;-75
2022/09/04 06:46:55;;;;;;;3.85;3.20;;;;;;;16.04;87.78;100900.41;5068285;28;20656;-75
2022/09/04 06:50:19;;;;;;;3.90;3.10;;;;;;;16.14;88.03;100903.25;5067874;28;20075;-75
2022/09/04 06:54:04;;;;;;;3.90;3.10;;;;;;;16.07;87.14;100901.97;5068079;28;20419;-75
2022/09/04 06:57:34;;;;;;;3.90;3.03;;;;;;;16.08;87.20;100905.47;5016172;28;20053;-76
2022/09/04 07:01:07;;;;;;;5.25;2.70;;;;;;;16.21;86.75;100911.59;5076865;28;20051;-75
2022/09/04 07:04:29;;;;;;;3.47;3.10;;;;;;;16.17;87.06;100918.84;5058026;28;20047;-75
2022/09/04 07:07:54;;;;;;;6.00;3.78;;;;;;;16.30;86.95;100916.22;5070954;28;20120;-75
2022/09/04 07:11:34;;;;;;;5.13;3.60;;;;;;;16.35;88.00;100910.63;5070030;28;20203;-75
2022/09/04 07:15:06;;;;;;;5.78;4.40;;;;;;;16.51;86.92;100919.13;5070110;28;20055;-76
2022/09/04 07:18:49;;;;;;;5.50;4.15;;;;;;;16.24;87.73;100919.28;5048999;28;20103;-75
2022/09/04 07:22:38;;;;;;;5.18;4.18;;;;;;;16.32;87.70;100916.94;5048645;28;20044;-76
2022/09/04 07:26:01;;;;;;;9.13;4.22;;;;;;;16.30;88.32;100925.91;5039015;28;20040;-76
2022/09/04 07:29:28;;;;;;;5.97;4.82;;;;;;;16.36;89.62;100926.34;5067401;28;20102;-76
2022/09/04 07:32:56;;;;;;;6.35;4.22;;;;;;;16.49;87.34;100927.16;5061233;28;20405;-75
2022/09/04 07:36:19;;;;;;;4.85;3.67;;;;;;;16.55;87.84;100933.81;5074699;28;20398;-76
2022/09/04 07:39:34;;;;;;;5.40;4.28;;;;;;;16.67;87.34;100926.81;5069769;28;20430;-75
2022/09/04 07:43:23;;;;;;;5.28;4.13;;;;;;;16.74;86.40;100930.69;5072711;28;20102;-75
2022/09/04 07:46:49;;;;;;;6.20;4.30;;;;;;;16.69;86.64;100940.75;5070985;28;20047;-75
2022/09/04 07:50:16;;;;;;;5.85;4.85;;;;;;;16.84;85.97;100939.69;5072971;28;20119;-75
2022/09/04 07:53:38;;;;;;;5.50;4.38;;;;;;;16.77;86.77;100945.53;5072612;28;20560;-75
2022/09/04 07:57:20;;;;;;;6.20;4.80;;;;;;;16.83;86.61;100943.28;5051604;28;20056;-75
2022/09/04 08:00:25;;;;;;;5.93;4.70;;;;;;;16.81;87.50;100946.97;5061831;28;20091;-76
2022/09/04 08:04:02;;;;;;;5.45;4.28;;;;;;;16.50;89.47;100949.97;5071471;28;20498;-76
2022/09/04 08:07:32;;;;;;;5.05;4.22;;;;;;;16.71;88.16;100947.59;5071717;28;20103;-75
2022/09/04 08:10:45;;;;;;;5.43;4.38;;;;;;;16.93;87.42;100965.44;5062194;28;20149;-75
2022/09/04 08:14:10;;;;;;;5.55;4.85;;;;;;;16.97;87.51;100966.03;5071870;28;20055;-76
2022/09/04 08:17:35;;;;;;;6.28;4.53;;;;;;;17.13;86.56;100979.00;5053723;28;20129;-77
2022/09/04 08:21:21;;;;;;;6.50;4.55;;;;;;;17.32;85.50;100973.22;5052739;28;20101;-76
2022/09/04 08:24:31;;;;;;;7.47;4.78;;;;;;;17.35;85.39;100981.75;5054421;28;20036;-76
2022/09/04 08:27:54;;;;;;;5.43;4.65;;;;;;;17.39;85.97;100979.75;5054258;28;20064;-75
2022/09/04 08:31:08;;;;;;;6.00;4.93;;;;;;;17.51;85.66;100980.63;5055114;28;20514;-76
2022/09/04 08:34:33;;;;;;;5.38;4.43;;;;;;;17.47;85.17;100981.81;5054368;28;20095;-76
2022/09/04 08:37:55;;;;;;;5.85;4.85;;;;;;;17.51;84.99;100977.97;5054420;28;20118;-76
2022/09/04 08:41:47;;;;;;;6.30;5.10;;;;;;;17.73;84.67;100982.53;5056489;28;20063;-76
2022/09/04 08:45:28;;;;;;;6.43;4.82;;;;;;;17.92;83.73;100989.94;5055193;28;20499;-72
2022/09/04 08:48:41;;;;;;;5.97;4.85;;;;;;;17.99;83.33;100991.16;5054679;28;20055;-72
2022/09/04 08:52:22;;;;;;;6.35;4.63;;;;;;;18.08;83.99;100993.13;5055128;28;20047;-72
2022/09/04 08:55:45;;;;;;;6.07;5.43;;;;;;;18.09;83.09;100990.38;5054132;28;20068;-72
2022/09/04 08:59:10;;;;;;;5.95;5.28;;;;;;;18.15;83.55;100986.38;5054496;28;20394;-72
2022/09/04 09:02:38;;;;;;;7.65;6.65;;;;;;;18.19;83.83;100989.63;5054649;28;20047;-72
2022/09/04 09:05:55;;;;;;;7.53;6.75;;;;;;;18.33;83.33;100989.41;5054726;28;20099;-72
2022/09/04 09:09:01;;;;;;;6.18;5.57;;;;;;;18.30;82.75;100982.56;5054057;28;20091;-74
2022/09/04 09:12:19;;;;;;;6.85;6.15;;;;;;;18.40;82.60;100981.84;5054353;28;20056;-75
2022/09/04 09:15:34;;;;;;;6.25;5.60;;;;;;;18.40;82.70;100981.84;5054213;28;20438;-75
2022/09/04 09:18:53;;;;;;;6.50;5.80;;;;;;;18.48;83.90;100977.66;5054427;28;20099;-74
2022/09/04 09:22:33;;;;;;;8.20;6.70;;;;;;;18.36;83.26;100974.13;5054538;28;20386;-74
2022/09/04 09:25:48;;;;;;;6.22;5.63;;;;;;;18.39;83.77;100974.88;5053514;28;20040;-74
2022/09/04 09:29:00;;;;;;;5.80;5.20;;;;;;;18.42;84.45;100974.63;5053223;28;20125;-76
2022/09/04 09:32:16;;;;;;;7.45;6.57;;;;;;;18.34;86.55;100976.06;5053284;28;20103;-76
2022/09/04 09:35:41;;;;;;;6.03;5.43;;;;;;;18.35;86.01;100969.81;5053521;28;20530;-75
2022/09/04 09:39:09;;;;;;;7.63;5.90;;;;;;;18.36;86.69;100968.84;5052738;28;20055;-75
2022/09/04 09:42:58;;;;;;;6.53;5.82;;;;;;;18.27;87.07;100961.63;5053406;28;20051;-76
2022/09/04 09:46:23;;;;;;;6.80;5.30;;;;;;;18.31;89.15;100968.38;5053445;28;20086;-75
2022/09/04 09:49:43;;;;;;;5.43;4.90;;;;;;;18.55;88.14;100967.41;5053611;28;20048;-74
2022/09/04 09:53:22;;;;;;;7.78;5.72;;;;;;;18.56;87.10;100953.19;5053297;28;20261;-75
2022/09/04 09:57:02;;;;;;;6.82;4.78;;;;;;;18.51;87.04;100953.56;5052810;28;20055;-75
2022/09/04 10:00:16;;;;;;;5.22;4.72;;;;;;;18.66;85.84;100951.50;5053149;28;20047;-74
2022/09/04 10:03:38;;;;;;;4.32;3.63;;;;;;;18.81;86.16;100957.41;5053107;28;20048;-73
2022/09/04 10:07:09;;;;;;;5.93;4.05;;;;;;;18.88;85.42;100947.16;5052688;28;20044;-74
2022/09/04 10:10:23;;;;;;;4.30;3.70;;;;;;;19.13;87.14;100949.53;5052685;28;20106;-74
2022/09/04 10:13:38;;;;;;;4.47;3.60;;;;;;;19.24;85.54;100945.97;5052535;28;20051;-74
2022/09/04 10:17:07;;;;;;;4.28;3.65;;;;;;;19.40;86.26;100950.88;5052631;28;20086;-74
2022/09/04 10:21:07;;;;;;;4.93;3.10;;;;;;;19.64;85.63;100943.56;5052782;28;20063;-74
2022/09/04 10:24:10;;;;;;;4.05;2.40;;;;;;;19.77;83.89;100942.53;5037002;28;20460;-75
2022/09/04 10:27:26;;;;;;;6.50;2.65;;;;;;;19.82;83.24;100943.00;5052646;28;20435;-75
2022/09/04 10:30:58;;;;;;;6.30;2.35;;;;;;;19.87;81.32;100933.66;5051416;28;20563;-75
2022/09/04 10:34:22;;;;;;;3.30;2.10;;;;;;;19.91;81.30;100926.25;5052185;28;20084;-74
2022/09/04 10:38:03;;;;;;;2.65;2.00;;;;;;;20.03;82.97;100921.72;5063930;28;20125;-74
2022/09/04 10:41:24;;;;;;;3.30;1.95;;;;;;;20.20;81.53;100919.31;5063284;28;20186;-75
2022/09/04 10:44:54;;;;;;;4.68;1.90;;;;;;;20.24;78.23;100913.75;5052497;28;20047;-75
2022/09/04 10:48:13;;;;;;;3.38;1.67;;;;;;;20.44;78.09;100910.19;5051431;28;20144;-75
2022/09/04 10:52:05;;;;;;;3.15;1.42;;;;;;;20.50;76.82;100909.63;5063025;28;20095;-75
2022/09/04 10:55:13;;;;;;;2.53;1.30;;;;;;;20.80;75.80;100899.94;5040805;28;20083;-75
2022/09/04 10:58:28;;;;;;;2.65;1.42;;;;;;;21.16;73.38;100906.44;5051804;28;20490;-74
2022/09/04 11:01:52;;;;;;;4.32;0.90;;;;;;;21.51;70.18;100900.56;5051871;28;20542;-75
2022/09/04 11:05:26;;;;;;;3.67;0.95;;;;;;;21.77;66.09;100905.28;5052009;28;20086;-75
2022/09/04 11:08:49;;;;;;;2.70;0.95;;;;;;;22.09;65.11;100901.41;5052395;28;20052;-75
2022/09/04 11:12:08;;;;;;;2.90;0.95;;;;;;;22.03;64.13;100900.16;5052001;28;20040;-75
2022/09/04 11:15:34;;;;;;;3.20;1.65;;;;;;;21.77;66.63;100899.97;5050611;28;20047;-75
2022/09/04 11:18:55;;;;;;;3.70;0.90;;;;;;;21.93;64.58;100894.88;5051752;28;20097;-75
2022/09/04 11:22:19;;;;;;;2.00;0.77;;;;;;;21.95;61.47;100881.41;5049613;28;20451;-74
2022/09/04 11:26:04;;;;;;;2.90;0.88;;;;;;;21.83;62.23;100888.75;5029522;28;20129;-77
2022/09/04 11:29:46;;;;;;;3.40;1.00;;;;;;;22.16;62.12;100889.22;4968386;28;20051;-75
2022/09/04 11:33:06;;;;;;;2.85;0.77;;;;;;;22.36;60.16;100887.31;4989038;28;20075;-74
2022/09/04 11:36:34;;;;;;;3.25;0.77;;;;;;;22.37;59.12;100887.19;5050670;28;20044;-74
2022/09/04 11:40:23;;;;;;;5.05;1.48;;;;;;;22.36;60.22;100887.31;5051664;28;20083;-74
2022/09/04 11:43:51;;;;;;;6.43;1.40;;;;;;;22.50;58.67;100876.16;5051587;28;20044;-74
2022/09/04 11:47:12;;;;;;;1.52;0.65;;;;;;;22.56;57.16;100882.69;5051460;28;20411;-74
2022/09/04 11:50:23;;;;;;;4.57;1.20;;;;;;;22.55;58.44;100883.69;5051518;28;20051;-74
2022/09/04 11:54:09;;;;;;;4.53;1.13;;;;;;;22.62;58.49;100885.63;5051620;28;20052;-75
2022/09/04 11:57:32;;;;;;;2.50;0.75;;;;;;;22.84;56.52;100878.19;5052241;28;20135;-73
2022/09/04 12:01:09;;;;;;;3.10;0.98;;;;;;;23.01;57.07;100879.22;5050615;28;20135;-72
2022/09/04 12:04:54;;;;;;;2.78;0.80;;;;;;;23.11;54.41;100880.00;5050912;28;20040;-73
2022/09/04 12:08:34;;;;;;;2.95;0.85;;;;;;;23.44;54.53;100873.06;5051278;28;20187;-73
2022/09/04 12:12:10;;;;;;;3.22;0.90;;;;;;;23.49;52.99;100872.63;5050676;28;20080;-73
2022/09/04 12:15:28;;;;;;;2.85;0.80;;;;;;;23.79;53.07;100869.50;5053048;28;20132;-72
2022/09/04 12:18:56;;;;;;;2.25;0.77;;;;;;;24.15;51.79;100880.03;5053113;28;20063;-73
2022/09/04 12:22:34;;;;;;;2.72;0.60;;;;;;;24.41;50.55;100869.34;5055340;28;20055;-73
2022/09/04 12:26:05;;;;;;;4.35;1.10;;;;;;;24.55;50.28;100868.72;5055071;28;20175;-73
2022/09/04 12:29:12;;;;;;;2.40;0.70;;;;;;;24.58;49.72;100870.22;5055046;28;20068;-73
2022/09/04 12:32:49;;;;;;;2.90;1.00;;;;;;;24.52;50.04;100868.19;5055242;28;20411;-73
2022/09/04 12:36:32;;;;;;;4.38;1.42;;;;;;;24.94;50.55;100865.44;5054746;28;20099;-73
2022/09/04 12:39:50;;;;;;;2.42;1.23;;;;;;;25.09;49.93;100878.19;5055329;28;20064;-73
2022/09/04 12:42:59;;;;;;;1.95;0.70;;;;;;;24.45;51.92;100869.84;5055246;28;20083;-73
2022/09/04 12:46:29;;;;;;;2.63;0.80;;;;;;;25.25;50.25;100868.34;5053924;28;20178;-73
2022/09/04 12:49:58;;;;;;;2.08;0.90;;;;;;;25.83;48.07;100870.97;5054401;28;20506;-73
2022/09/04 12:53:24;;;;;;;2.95;0.65;;;;;;;26.44;47.08;100869.41;5054430;28;20457;-74
2022/09/04 12:57:05;;;;;;;1.83;0.80;;;;;;;26.62;45.44;100864.66;5054205;28;20048;-73
2022/09/04 13:00:11;;;;;;;2.58;0.90;;;;;;;27.07;43.90;100865.66;5054219;28;20052;-73
2022/09/04 13:03:24;;;;;;;3.55;0.80;;;;;;;27.27;43.51;100860.66;5054412;28;20055;-80
2022/09/04 13:06:50;;;;;;;6.05;0.80;;;;;;;27.91;42.58;100860.22;5067260;28;20387;-73
2022/09/04 13:10:10;;;;;;;3.30;0.80;;;;;;;28.40;41.05;100861.50;5074405;28;20411;-73
2022/09/04 13:13:40;;;;;;;2.40;0.90;;;;;;;28.97;40.06;100852.56;5073373;28;20047;-76
2022/09/04 13:16:58;;;;;;;4.57;1.20;;;;;;;29.01;39.75;100861.16;5083991;28;20047;-76
2022/09/04 13:20:51;;;;;;;4.25;0.98;;;;;;;26.76;42.99;100878.31;5073735;28;20047;-72
2022/09/04 13:24:13;;;;;;;1.15;0.60;;;;;;;26.96;42.61;100870.63;5065952;28;20112;-72
2022/09/04 13:27:29;;;;;;;4.05;0.77;;;;;;;27.58;42.53;100873.16;5073820;28;20063;-72
2022/09/04 13:30:37;;;;;;;2.45;0.70;;;;;;;28.31;40.59;100868.81;5073594;28;20047;-72
2022/09/04 13:34:36;;;;;;;1.58;0.70;;;;;;;29.29;38.65;100869.25;5070018;28;20091;-72
2022/09/04 13:38:14;;;;;;;1.98;0.82;;;;;;;35.63;27.90;100852.34;5128839;22;20096;-76
2022/09/04 13:42:05;;;;;;;2.90;0.70;;;;;;;38.59;23.02;100842.75;5034605;28;20180;-75
2022/09/04 13:45:22;;;;;;;4.22;0.80;;;;;;;38.99;23.02;100845.03;4975336;28;20065;-75
2022/09/04 13:48:50;;;;;;;2.63;0.80;;;;;;;41.58;19.89;100834.28;4979878;28;20045;-72
2022/09/04 13:52:10;;;;;;;1.60;0.70;;;;;;;41.50;18.80;100829.34;5013025;28;20403;-74
2022/09/04 13:55:28;;;;;;;2.83;1.13;;;;;;;39.99;20.94;100834.16;5024083;28;20523;-74
2022/09/04 13:58:40;;;;;;;2.17;0.90;;;;;;;38.24;22.70;100837.72;5033178;28;20052;-74
2022/09/04 14:01:50;;;;;;;2.95;0.52;;;;;;;37.46;23.62;100832.34;5032726;28;20184;-73
2022/09/04 14:05:24;;;;;;;2.70;1.20;;;;;;;40.11;20.24;100825.72;5032129;28;20402;-73
2022/09/04 14:08:30;;;;;;;1.40;0.70;;;;;;;42.30;17.80;100821.03;5022831;28;20060;-74
2022/09/04 14:12:10;;;;;;;1.42;0.60;;;;;;;34.21;27.71;100839.50;5017205;28;20110;-74
2022/09/04 14:15:43;;;;;;;2.05;0.80;;;;;;;33.84;29.19;100844.91;5032859;28;20544;-76
2022/09/04 14:18:55;;;;;;;3.85;0.65;;;;;;;34.30;28.16;100838.09;5013090;28;20072;-76
2022/09/04 14:22:13;;;;;;;1.85;0.60;;;;;;;32.57;31.00;100850.53;5012875;28;20117;-77
2022/09/04 14:25:33;;;;;;;1.95;0.70;;;;;;;34.24;28.39;100836.34;5013046;28;20125;-78
2022/09/04 14:29:01;;;;;;;4.53;0.80;;;;;;;32.91;29.61;100837.59;5035816;28;20051;-78
2022/09/04 14:32:17;;;;;;;3.10;0.77;;;;;;;33.55;30.06;100850.00;5021654;28;20393;-77
2022/09/04 14:35:26;;;;;;;1.70;0.50;;;;;;;33.56;29.39;100846.25;5031918;28;20353;-77
2022/09/04 14:38:42;;;;;;;1.92;0.88;;;;;;;33.94;28.78;100847.91;5030386;28;20159;-78
2022/09/04 14:42:11;;;;;;;1.73;0.80;;;;;;;36.67;24.95;100841.44;5012572;28;20049;-77
2022/09/04 14:45:24;;;;;;;1.80;0.90;;;;;;;32.78;30.37;100845.81;5012751;28;20049;-76
2022/09/04 14:48:30;;;;;;;2.92;0.70;;;;;;;30.34;34.65;100854.81;5031926;28;20040;-76
2022/09/04 14:51:42;;;;;;;1.90;0.88;;;;;;;30.70;34.43;100848.28;5048456;28;20629;-76
2022/09/04 14:54:52;;;;;;;4.40;0.70;;;;;;;31.61;32.30;100850.41;5046343;28;20090;-76
2022/09/04 14:58:34;;;;;;;3.30;0.70;;;;;;;29.92;36.44;100850.44;5052756;28;20178;-76
2022/09/04 15:02:08;;;;;;;1.95;0.50;;;;;;;28.47;38.75;100844.44;4973619;28;20049;-77
2022/09/04 15:05:16;;;;;;;2.03;0.70;;;;;;;28.33;40.14;100853.31;5022989;28;20071;-76
2022/09/04 15:08:32;;;;;;;5.60;0.63;;;;;;;30.16;36.89;100846.44;5012490;28;20592;-76
2022/09/04 15:11:39;;;;;;;2.58;0.80;;;;;;;30.32;36.38;100852.31;5012637;28;20096;-76
2022/09/04 15:14:49;;;;;;;2.00;0.82;;;;;;;35.12;28.58;100840.28;5012663;28;20049;-76
2022/09/04 15:18:03;;;;;;;3.33;0.80;;;;;;;34.00;30.89;100838.88;5011956;28;20200;-76
2022/09/04 15:21:28;;;;;;;2.35;0.50;;;;;;;30.64;35.45;100849.94;5012560;28;20057;-77
2022/09/04 15:24:46;;;;;;;3.38;0.50;;;;;;;29.31;39.31;100851.06;5012322;28;20457;-76
2022/09/04 15:28:04;;;;;;;6.03;1.10;;;;;;;28.11;40.34;100851.59;5012500;28;20103;-76
2022/09/04 15:31:27;;;;;;;3.17;1.10;;;;;;;27.51;43.91;100856.94;5011610;28;20088;-76
2022/09/04 15:34:35;;;;;;;3.70;2.20;;;;;;;27.30;44.66;100862.16;5012568;28;20052;-76
2022/09/04 15:37:42;;;;;;;2.20;1.10;;;;;;;26.83;46.42;100857.78;5012393;28;20528;-76
2022/09/04 15:40:50;;;;;;;3.38;1.10;;;;;;;26.87;48.49;100862.63;5012200;28;20052;-76
2022/09/04 15:44:07;;;;;;;2.50;0.98;;;;;;;26.50;49.58;100858.00;5012552;28;20104;-76
2022/09/04 15:51:41;;;;;;;3.17;1.63;;;;;;;25.96;50.67;100860.56;5040539;28;20125;-76
2022/09/04 15:55:11;;;;;;;2.75;0.98;;;;;;;25.91;50.78;100865.56;5045691;28;20040;-77
2022/09/04 15:58:37;;;;;;;2.95;1.40;;;;;;;25.86;51.99;100865.28;5036622;28;20450;-77